createdAt,value
2023-03-05T06:02:50.335Z,99401.20
2023-03-05T06:07:52.756Z,99399.71
2023-03-05T06:12:54.532Z,99399.71
2023-03-05T06:17:58.023Z,99400.93
2023-03-05T06:22:59.722Z,99406.84
2023-03-05T06:28:01.398Z,99396.80
2023-03-05T06:33:03.301Z,99395.55
2023-03-05T06:38:06.472Z,99402.42
2023-03-05T06:43:08.353Z,99402.45
2023-03-05T06:48:11.254Z,99403.44
2023-03-05T06:53:12.922Z,99398.43
2023-03-05T06:58:14.602Z,99390.84
2023-03-05T07:03:16.999Z,99392.78
2023-03-05T07:08:18.861Z,99396.86
2023-03-05T07:13:20.634Z,99392.60
2023-03-05T07:18:22.514Z,99392.66
2023-03-05T07:23:24.287Z,99391.26
2023-03-05T07:28:25.956Z,99389.55
2023-03-05T07:33:28.245Z,99393.80
2023-03-05T07:38:33.203Z,99388.07
2023-03-05T07:43:35.991Z,99383.99
2023-03-05T07:48:38.277Z,99373.18
2023-03-05T07:53:40.562Z,99372.70
2023-03-05T07:58:42.544Z,99368.52
2023-03-05T08:03:45.074Z,99370.95
2023-03-05T08:08:47.014Z,99367.17
2023-03-05T08:13:49.208Z,99362.48
2023-03-05T08:18:55.426Z,99366.15
2023-03-05T08:23:57.964Z,99362.58
2023-03-05T08:29:00.251Z,99363.42
2023-03-05T08:34:03.151Z,99361.23
2023-03-05T08:39:06.460Z,99347.61
2023-03-05T08:44:08.750Z,99350.02
2023-03-05T08:49:10.646Z,99348.46
2023-03-05T08:54:12.816Z,99346.66
2023-03-05T08:59:14.697Z,99344.37
2023-03-05T09:04:17.177Z,99344.16
2023-03-05T09:09:21.204Z,99335.80
2023-03-05T09:14:23.756Z,99335.56
2023-03-05T09:19:30.132Z,99334.43
2023-03-05T09:24:32.435Z,99332.36
2023-03-05T09:29:34.868Z,99331.98
2023-03-05T09:34:37.546Z,99333.66
2023-03-05T09:39:40.036Z,99324.67
2023-03-05T09:45:11.100Z,99318.67
2023-03-05T09:50:45.645Z,99315.74
2023-03-05T09:55:58.374Z,99318.41
2023-03-05T10:01:01.686Z,99310.61
2023-03-05T10:06:15.144Z,99304.65
2023-03-05T10:11:37.800Z,99299.59
2023-03-05T10:17:10.086Z,99292.30
2023-03-05T10:22:24.852Z,99295.39
2023-03-05T10:27:42.166Z,99289.48
2023-03-05T10:33:12.236Z,99289.16
2023-03-05T10:38:24.294Z,99286.64
2023-03-05T10:43:47.754Z,99283.74
2023-03-05T10:48:53.101Z,99292.95
2023-03-05T10:54:20.473Z,99286.80
2023-03-05T10:59:22.756Z,99274.05
2023-03-05T11:04:29.459Z,99265.48
2023-03-05T11:09:33.980Z,99259.77
2023-03-05T11:14:39.523Z,99253.58
2023-03-05T11:19:41.343Z,99251.50
2023-03-05T11:24:46.222Z,99237.50
2023-03-05T11:29:50.482Z,99236.31
2023-03-05T11:34:54.219Z,99227.14
2023-03-05T11:40:19.752Z,99234.11
2023-03-05T11:45:24.387Z,99236.52
2023-03-05T11:50:32.277Z,99231.33
2023-03-05T11:55:47.501Z,99234.41
2023-03-05T12:00:53.678Z,99247.63
2023-03-05T12:06:23.066Z,99263.69
2023-03-05T12:11:30.833Z,99250.09
2023-03-05T12:16:45.698Z,99236.55
2023-03-05T12:21:50.852Z,99230.83
2023-03-05T12:26:52.831Z,99228.41
2023-03-05T12:31:55.429Z,99224.21
2023-03-05T12:36:57.197Z,99218.98
2023-03-05T12:41:59.177Z,99216.27
2023-03-05T12:47:18.898Z,99213.18
2023-03-05T12:52:25.478Z,99213.11
2023-03-05T12:57:31.310Z,99214.39
2023-03-05T13:02:42.727Z,99212.36
2023-03-05T13:07:45.213Z,99207.48
2023-03-05T13:12:54.181Z,99207.41
2023-03-05T13:18:07.664Z,99208.42
2023-03-05T13:23:23.308Z,99202.56
2023-03-05T13:28:26.635Z,99201.67
2023-03-05T13:33:29.718Z,99204.65
2023-03-05T13:38:46.903Z,99207.77
2023-03-05T13:43:50.790Z,99202.45
2023-03-05T13:48:52.801Z,99204.39
2023-03-05T13:53:55.756Z,99204.94
2023-03-05T13:58:59.214Z,99205.34
2023-03-05T14:04:04.431Z,99198.65
2023-03-05T14:09:17.665Z,99192.40
2023-03-05T14:14:21.452Z,99185.59
2023-03-05T14:19:36.571Z,99180.15
2023-03-05T14:24:38.367Z,99176.89
2023-03-05T14:29:46.268Z,99171.36
2023-03-05T14:34:55.413Z,99171.64
2023-03-05T14:40:07.454Z,99174.73
2023-03-05T14:45:21.165Z,99174.98
2023-03-05T14:50:28.702Z,99172.09
2023-03-05T14:55:33.223Z,99172.05
2023-03-05T15:00:39.421Z,99171.21
2023-03-05T15:05:43.319Z,99168.21
2023-03-05T15:10:45.423Z,99163.61
2023-03-05T15:15:49.112Z,99164.95
2023-03-05T15:20:53.010Z,99165.76
2023-03-05T15:25:55.810Z,99169.86
2023-03-05T15:30:59.766Z,99165.65
2023-03-05T15:36:03.615Z,99166.33
2023-03-05T15:41:07.017Z,99167.02
2023-03-05T15:46:09.058Z,99168.48
2023-03-05T15:51:11.278Z,99169.27
2023-03-05T15:56:18.599Z,99171.78
2023-03-05T16:01:23.170Z,99172.02
2023-03-05T16:06:26.347Z,99167.25
2023-03-05T16:11:30.081Z,99171.37
2023-03-05T16:16:34.396Z,99174.55
2023-03-05T16:21:37.296Z,99180.80
2023-03-05T16:26:41.836Z,99187.95
2023-03-05T16:31:45.003Z,99192.54
2023-03-05T16:36:52.723Z,99191.39
2023-03-05T16:41:55.149Z,99194.77
2023-03-05T16:46:57.124Z,99189.55
2023-03-05T16:52:01.334Z,99193.16
2023-03-05T16:57:08.991Z,99193.61
2023-03-05T17:02:13.026Z,99192.33
2023-03-05T17:07:16.718Z,99192.57
2023-03-05T17:12:20.236Z,99198.23
2023-03-05T17:17:22.308Z,99198.92
2023-03-05T17:22:24.422Z,99196.86
2023-03-05T17:27:27.501Z,99195.64
2023-03-05T17:32:29.700Z,99195.40
2023-03-05T17:37:31.767Z,99194.96
2023-03-05T17:42:33.437Z,99195.17
2023-03-05T17:47:37.877Z,99196.11
2023-03-05T17:52:41.617Z,99194.39
2023-03-05T17:57:44.287Z,99194.77
2023-03-05T18:02:47.884Z,99194.29
2023-03-05T18:07:52.550Z,99194.65
2023-03-05T18:12:55.452Z,99197.36
2023-03-05T18:17:58.688Z,99195.66
2023-03-05T18:23:04.274Z,99197.19
2023-03-05T18:28:13.010Z,99194.64
2023-03-05T18:33:23.810Z,99201.20
2023-03-05T18:38:28.164Z,99202.42
2023-03-05T18:43:29.986Z,99198.31
2023-03-05T18:48:32.036Z,99201.19
2023-03-05T18:53:34.008Z,99202.42
2023-03-05T18:58:37.669Z,99199.69
2023-03-05T19:03:40.221Z,99199.17
2023-03-05T19:08:42.816Z,99204.32
2023-03-05T19:13:50.300Z,99204.48
2023-03-05T19:19:19.341Z,99205.96
2023-03-05T19:24:25.349Z,99206.72
2023-03-05T19:29:32.522Z,99205.64
2023-03-05T19:34:35.523Z,99206.75
2023-03-05T19:39:37.814Z,99208.76
2023-03-05T19:44:40.298Z,99209.09
2023-03-05T19:49:42.680Z,99209.71
2023-03-05T19:54:44.863Z,99214.02
2023-03-05T19:59:47.048Z,99213.94
2023-03-05T20:04:51.807Z,99214.90
2023-03-05T20:09:56.160Z,99216.46
2023-03-05T20:14:58.415Z,99213.30
2023-03-05T20:20:02.032Z,99207.98
2023-03-05T20:25:08.212Z,99212.10
2023-03-05T20:30:14.820Z,99210.88
2023-03-05T20:35:19.822Z,99210.19
2023-03-05T20:40:23.376Z,99205.60
2023-03-05T20:45:26.882Z,99202.68
2023-03-05T20:50:30.538Z,99203.56
2023-03-05T20:55:32.560Z,99196.55
2023-03-05T21:00:35.406Z,99192.91
2023-03-05T21:05:37.572Z,99192.98
2023-03-05T21:10:40.182Z,99188.09
2023-03-05T21:15:42.654Z,99183.48
2023-03-05T21:20:44.738Z,99185.17
2023-03-05T21:25:46.699Z,99184.14
2023-03-05T21:30:53.964Z,99178.73
2023-03-05T21:35:59.275Z,99176.84
2023-03-05T21:41:02.574Z,99172.96
2023-03-05T21:46:04.818Z,99169.21
2023-03-05T21:51:22.726Z,99166.86
2023-03-05T21:56:30.736Z,99163.98
2023-03-05T22:01:32.733Z,99164.75
2023-03-05T22:06:34.693Z,99161.36
2023-03-05T22:11:37.078Z,99160.75
2023-03-05T22:16:39.083Z,99162.52
2023-03-05T22:21:40.932Z,99157.23
2023-03-05T22:26:42.725Z,99156.30
2023-03-05T22:31:45.313Z,99152.63
2023-03-05T22:36:47.278Z,99149.62
2023-03-05T22:41:49.055Z,99144.39
2023-03-05T22:46:50.935Z,99141.11
2023-03-05T22:51:52.702Z,99139.42
2023-03-05T22:56:54.590Z,99142.34
2023-03-05T23:01:56.868Z,99140.30
2023-03-05T23:06:58.649Z,99138.95
2023-03-05T23:12:00.937Z,99132.96
2023-03-05T23:17:04.148Z,99128.89
2023-03-05T23:22:07.764Z,99122.73
2023-03-05T23:27:14.149Z,99124.36
2023-03-05T23:32:16.567Z,99127.54
2023-03-05T23:37:18.312Z,99124.54
2023-03-05T23:42:20.083Z,99121.41
2023-03-05T23:47:21.869Z,99118.10
2023-03-05T23:52:23.633Z,99113.36
2023-03-05T23:57:25.611Z,99112.08
